sensor_id;sensor_type;location;lat;lon;timestamp;temperature;humidity
3912;DHT22;1971;51.778;10.330;2023-05-19T00:00:55;6.50;95.30
3912;DHT22;1971;51.778;10.330;2023-05-19T00:03:26;6.40;68.10
3912;DHT22;1971;51.778;10.330;2023-05-19T00:06:01;6.40;91.50
3912;DHT22;1971;51.778;10.330;2023-05-19T00:08:33;6.30;99.70
3912;DHT22;1971;51.778;10.330;2023-05-19T00:11:04;6.40;99.90
3912;DHT22;1971;51.778;10.330;2023-05-19T00:13:34;6.20;99.90
3912;DHT22;1971;51.778;10.330;2023-05-19T00:16:09;6.10;99.90
3912;DHT22;1971;51.778;10.330;2023-05-19T00:18:39;6.10;99.90
3912;DHT22;1971;51.778;10.330;2023-05-19T00:21:09;5.90;99.90
3912;DHT22;1971;51.778;10.330;2023-05-19T00:23:39;5.90;99.90
3912;DHT22;1971;51.778;10.330;2023-05-19T00:26:10;5.70;99.90
3912;DHT22;1971;51.778;10.330;2023-05-19T00:28:50;5.80;1.00
3912;DHT22;1971;51.778;10.330;2023-05-19T00:31:23;6.10;1.00
3912;DHT22;1971;51.778;10.330;2023-05-19T00:33:54;6.30;1.00
3912;DHT22;1971;51.778;10.330;2023-05-19T00:36:24;6.00;1.00
3912;DHT22;1971;51.778;10.330;2023-05-19T00:38:55;6.00;99.90
3912;DHT22;1971;51.778;10.330;2023-05-19T00:41:27;5.90;1.00
3912;DHT22;1971;51.778;10.330;2023-05-19T00:43:57;5.90;1.00
3912;DHT22;1971;51.778;10.330;2023-05-19T00:46:29;5.80;1.00
3912;DHT22;1971;51.778;10.330;2023-05-19T00:48:59;5.70;1.00
3912;DHT22;1971;51.778;10.330;2023-05-19T00:51:29;5.80;1.00
3912;DHT22;1971;51.778;10.330;2023-05-19T00:54:00;6.00;1.00
3912;DHT22;1971;51.778;10.330;2023-05-19T00:56:30;6.10;1.00
3912;DHT22;1971;51.778;10.330;2023-05-19T00:59:01;6.00;1.00
3912;DHT22;1971;51.778;10.330;2023-05-19T01:01:34;6.00;1.00
3912;DHT22;1971;51.778;10.330;2023-05-19T01:04:04;6.10;1.00
3912;DHT22;1971;51.778;10.330;2023-05-19T01:06:37;6.10;1.00
3912;DHT22;1971;51.778;10.330;2023-05-19T01:09:07;6.20;1.00
3912;DHT22;1971;51.778;10.330;2023-05-19T01:11:38;6.20;1.00
3912;DHT22;1971;51.778;10.330;2023-05-19T01:14:08;6.30;1.00
3912;DHT22;1971;51.778;10.330;2023-05-19T01:16:44;6.20;1.00
3912;DHT22;1971;51.778;10.330;2023-05-19T01:19:30;6.10;1.00
3912;DHT22;1971;51.778;10.330;2023-05-19T01:22:26;6.20;1.00
3912;DHT22;1971;51.778;10.330;2023-05-19T01:28:38;6.70;1.00
3912;DHT22;1971;51.778;10.330;2023-05-19T01:31:20;6.30;1.00
3912;DHT22;1971;51.778;10.330;2023-05-19T01:33:53;6.60;1.00
3912;DHT22;1971;51.778;10.330;2023-05-19T01:36:25;6.60;1.00
3912;DHT22;1971;51.778;10.330;2023-05-19T01:38:58;6.70;1.00
3912;DHT22;1971;51.778;10.330;2023-05-19T01:41:29;6.90;1.00
3912;DHT22;1971;51.778;10.330;2023-05-19T01:44:01;6.70;1.00
3912;DHT22;1971;51.778;10.330;2023-05-19T01:46:34;6.70;1.00
3912;DHT22;1971;51.778;10.330;2023-05-19T01:49:04;6.80;1.00
3912;DHT22;1971;51.778;10.330;2023-05-19T01:51:35;7.00;99.90
3912;DHT22;1971;51.778;10.330;2023-05-19T01:54:05;6.80;99.90
3912;DHT22;1971;51.778;10.330;2023-05-19T01:56:41;7.00;99.90
3912;DHT22;1971;51.778;10.330;2023-05-19T01:59:25;7.00;99.90
3912;DHT22;1971;51.778;10.330;2023-05-19T02:02:00;7.00;99.90
3912;DHT22;1971;51.778;10.330;2023-05-19T02:04:37;7.10;99.90
3912;DHT22;1971;51.778;10.330;2023-05-19T02:07:16;7.10;99.90
3912;DHT22;1971;51.778;10.330;2023-05-19T02:09:52;7.20;99.90
3912;DHT22;1971;51.778;10.330;2023-05-19T02:12:28;7.50;99.90
3912;DHT22;1971;51.778;10.330;2023-05-19T02:15:04;7.40;99.90
3912;DHT22;1971;51.778;10.330;2023-05-19T02:17:39;7.30;99.90
3912;DHT22;1971;51.778;10.330;2023-05-19T02:20:14;7.30;99.90
3912;DHT22;1971;51.778;10.330;2023-05-19T02:22:44;7.30;91.40
3912;DHT22;1971;51.778;10.330;2023-05-19T02:25:15;7.30;90.80
3912;DHT22;1971;51.778;10.330;2023-05-19T02:27:45;7.30;78.10
3912;DHT22;1971;51.778;10.330;2023-05-19T02:30:15;7.40;69.00
3912;DHT22;1971;51.778;10.330;2023-05-19T02:32:47;7.40;50.30
3912;DHT22;1971;51.778;10.330;2023-05-19T02:35:20;7.60;68.90
3912;DHT22;1971;51.778;10.330;2023-05-19T02:37:51;7.40;54.50
3912;DHT22;1971;51.778;10.330;2023-05-19T02:40:21;7.40;84.50
3912;DHT22;1971;51.778;10.330;2023-05-19T02:42:51;7.40;99.90
3912;DHT22;1971;51.778;10.330;2023-05-19T02:45:22;7.20;99.90
3912;DHT22;1971;51.778;10.330;2023-05-19T02:47:59;7.20;99.90
3912;DHT22;1971;51.778;10.330;2023-05-19T02:50:29;7.30;99.90
3912;DHT22;1971;51.778;10.330;2023-05-19T02:52:59;7.40;99.90
3912;DHT22;1971;51.778;10.330;2023-05-19T02:55:29;7.70;99.90
3912;DHT22;1971;51.778;10.330;2023-05-19T02:58:00;7.40;99.90
3912;DHT22;1971;51.778;10.330;2023-05-19T03:00:30;7.50;99.90
3912;DHT22;1971;51.778;10.330;2023-05-19T03:03:03;7.40;99.00
3912;DHT22;1971;51.778;10.330;2023-05-19T03:05:33;7.40;99.90
3912;DHT22;1971;51.778;10.330;2023-05-19T03:08:03;7.40;92.60
3912;DHT22;1971;51.778;10.330;2023-05-19T03:10:33;7.50;99.90
3912;DHT22;1971;51.778;10.330;2023-05-19T03:13:04;7.30;99.90
3912;DHT22;1971;51.778;10.330;2023-05-19T03:15:33;7.30;99.90
3912;DHT22;1971;51.778;10.330;2023-05-19T03:18:06;7.40;99.90
3912;DHT22;1971;51.778;10.330;2023-05-19T03:20:38;7.20;99.90
3912;DHT22;1971;51.778;10.330;2023-05-19T03:23:08;7.10;99.90
3912;DHT22;1971;51.778;10.330;2023-05-19T03:25:39;7.40;99.90
3912;DHT22;1971;51.778;10.330;2023-05-19T03:28:09;7.10;99.90
3912;DHT22;1971;51.778;10.330;2023-05-19T03:30:39;7.40;99.90
3912;DHT22;1971;51.778;10.330;2023-05-19T03:33:16;7.30;99.90
3912;DHT22;1971;51.778;10.330;2023-05-19T03:35:46;7.40;99.90
3912;DHT22;1971;51.778;10.330;2023-05-19T03:38:17;7.10;99.90
3912;DHT22;1971;51.778;10.330;2023-05-19T03:40:52;7.20;99.90
3912;DHT22;1971;51.778;10.330;2023-05-19T03:43:22;7.30;99.90
3912;DHT22;1971;51.778;10.330;2023-05-19T03:46:00;7.30;99.90
3912;DHT22;1971;51.778;10.330;2023-05-19T03:48:51;7.30;99.90
3912;DHT22;1971;51.778;10.330;2023-05-19T03:52:00;7.70;99.90
3912;DHT22;1971;51.778;10.330;2023-05-19T03:54:45;7.50;99.90
3912;DHT22;1971;51.778;10.330;2023-05-19T03:57:15;7.40;79.40
3912;DHT22;1971;51.778;10.330;2023-05-19T03:59:46;7.30;99.90
3912;DHT22;1971;51.778;10.330;2023-05-19T04:02:16;7.30;99.90
3912;DHT22;1971;51.778;10.330;2023-05-19T04:04:49;7.30;99.90
3912;DHT22;1971;51.778;10.330;2023-05-19T04:07:20;7.30;99.90
3912;DHT22;1971;51.778;10.330;2023-05-19T04:09:50;7.60;99.90
3912;DHT22;1971;51.778;10.330;2023-05-19T04:12:20;7.40;99.90
3912;DHT22;1971;51.778;10.330;2023-05-19T04:14:52;7.40;99.90
3912;DHT22;1971;51.778;10.330;2023-05-19T04:17:23;7.40;99.90
3912;DHT22;1971;51.778;10.330;2023-05-19T04:19:57;7.40;99.90
3912;DHT22;1971;51.778;10.330;2023-05-19T04:22:27;7.50;99.90
3912;DHT22;1971;51.778;10.330;2023-05-19T04:24:58;7.50;99.90
3912;DHT22;1971;51.778;10.330;2023-05-19T04:27:30;7.50;99.90
3912;DHT22;1971;51.778;10.330;2023-05-19T04:30:05;7.60;99.90
3912;DHT22;1971;51.778;10.330;2023-05-19T04:32:35;7.70;99.90
3912;DHT22;1971;51.778;10.330;2023-05-19T04:35:10;7.80;99.90
3912;DHT22;1971;51.778;10.330;2023-05-19T04:37:43;7.90;90.30
3912;DHT22;1971;51.778;10.330;2023-05-19T04:40:17;8.00;29.40
3912;DHT22;1971;51.778;10.330;2023-05-19T04:42:51;8.10;1.00
3912;DHT22;1971;51.778;10.330;2023-05-19T04:45:21;8.20;1.00
3912;DHT22;1971;51.778;10.330;2023-05-19T04:47:54;8.30;1.00
3912;DHT22;1971;51.778;10.330;2023-05-19T04:50:28;8.50;1.00
3912;DHT22;1971;51.778;10.330;2023-05-19T04:53:00;8.60;1.00
3912;DHT22;1971;51.778;10.330;2023-05-19T04:55:30;8.70;1.00
3912;DHT22;1971;51.778;10.330;2023-05-19T04:58:01;8.80;1.00
3912;DHT22;1971;51.778;10.330;2023-05-19T05:00:31;8.90;1.00
3912;DHT22;1971;51.778;10.330;2023-05-19T05:03:05;9.10;1.00
3912;DHT22;1971;51.778;10.330;2023-05-19T05:05:37;9.20;1.00
3912;DHT22;1971;51.778;10.330;2023-05-19T05:08:08;9.40;1.00
3912;DHT22;1971;51.778;10.330;2023-05-19T05:10:42;9.70;1.00
3912;DHT22;1971;51.778;10.330;2023-05-19T05:13:13;10.00;1.00
3912;DHT22;1971;51.778;10.330;2023-05-19T05:15:44;10.20;1.00
3912;DHT22;1971;51.778;10.330;2023-05-19T05:18:15;10.30;1.00
3912;DHT22;1971;51.778;10.330;2023-05-19T05:20:48;10.50;1.00
3912;DHT22;1971;51.778;10.330;2023-05-19T05:23:19;10.70;1.00
3912;DHT22;1971;51.778;10.330;2023-05-19T05:25:50;10.80;1.00
3912;DHT22;1971;51.778;10.330;2023-05-19T05:28:21;11.00;1.00
3912;DHT22;1971;51.778;10.330;2023-05-19T05:30:52;11.10;1.00
3912;DHT22;1971;51.778;10.330;2023-05-19T05:33:24;11.30;99.90
3912;DHT22;1971;51.778;10.330;2023-05-19T05:35:57;11.40;99.90
3912;DHT22;1971;51.778;10.330;2023-05-19T05:38:28;11.50;99.90
3912;DHT22;1971;51.778;10.330;2023-05-19T05:40:58;11.60;99.90
3912;DHT22;1971;51.778;10.330;2023-05-19T05:43:30;11.80;99.90
3912;DHT22;1971;51.778;10.330;2023-05-19T05:46:02;11.80;99.90
3912;DHT22;1971;51.778;10.330;2023-05-19T05:48:33;11.70;99.90
3912;DHT22;1971;51.778;10.330;2023-05-19T05:51:08;11.80;99.90
3912;DHT22;1971;51.778;10.330;2023-05-19T05:53:40;12.00;99.90
3912;DHT22;1971;51.778;10.330;2023-05-19T05:56:14;11.90;99.90
3912;DHT22;1971;51.778;10.330;2023-05-19T05:58:49;11.70;99.90
3912;DHT22;1971;51.778;10.330;2023-05-19T06:01:20;11.60;99.90
3912;DHT22;1971;51.778;10.330;2023-05-19T06:03:51;11.50;99.90
3912;DHT22;1971;51.778;10.330;2023-05-19T06:06:25;11.60;99.90
3912;DHT22;1971;51.778;10.330;2023-05-19T06:08:56;11.60;99.90
3912;DHT22;1971;51.778;10.330;2023-05-19T06:11:27;11.60;99.90
3912;DHT22;1971;51.778;10.330;2023-05-19T06:13:58;11.60;99.90
3912;DHT22;1971;51.778;10.330;2023-05-19T06:17:06;11.60;99.90
3912;DHT22;1971;51.778;10.330;2023-05-19T06:19:36;11.70;99.90
3912;DHT22;1971;51.778;10.330;2023-05-19T06:22:09;11.80;99.90
3912;DHT22;1971;51.778;10.330;2023-05-19T06:24:39;12.30;99.90
3912;DHT22;1971;51.778;10.330;2023-05-19T06:27:10;12.60;99.90
3912;DHT22;1971;51.778;10.330;2023-05-19T06:29:40;12.70;99.90
3912;DHT22;1971;51.778;10.330;2023-05-19T06:32:11;12.90;99.90
3912;DHT22;1971;51.778;10.330;2023-05-19T06:34:41;13.30;99.90
3912;DHT22;1971;51.778;10.330;2023-05-19T06:37:14;13.50;99.90
3912;DHT22;1971;51.778;10.330;2023-05-19T06:39:45;13.50;99.90
3912;DHT22;1971;51.778;10.330;2023-05-19T06:42:17;13.70;99.90
3912;DHT22;1971;51.778;10.330;2023-05-19T06:45:00;13.70;99.90
3912;DHT22;1971;51.778;10.330;2023-05-19T06:47:31;13.90;99.90
3912;DHT22;1971;51.778;10.330;2023-05-19T06:50:01;13.90;99.90
3912;DHT22;1971;51.778;10.330;2023-05-19T06:52:37;14.00;99.90
3912;DHT22;1971;51.778;10.330;2023-05-19T06:55:07;14.00;99.90
3912;DHT22;1971;51.778;10.330;2023-05-19T06:57:37;14.10;99.90
3912;DHT22;1971;51.778;10.330;2023-05-19T07:00:11;13.80;99.90
3912;DHT22;1971;51.778;10.330;2023-05-19T07:02:47;13.80;99.90
3912;DHT22;1971;51.778;10.330;2023-05-19T07:05:18;13.70;99.90
3912;DHT22;1971;51.778;10.330;2023-05-19T07:07:56;13.80;99.90
3912;DHT22;1971;51.778;10.330;2023-05-19T07:10:28;13.80;99.90
3912;DHT22;1971;51.778;10.330;2023-05-19T07:12:58;14.10;99.90
3912;DHT22;1971;51.778;10.330;2023-05-19T07:15:31;14.30;99.90
3912;DHT22;1971;51.778;10.330;2023-05-19T07:18:02;14.30;99.90
3912;DHT22;1971;51.778;10.330;2023-05-19T07:20:32;14.20;99.90
3912;DHT22;1971;51.778;10.330;2023-05-19T07:23:05;14.30;99.90
3912;DHT22;1971;51.778;10.330;2023-05-19T07:25:36;13.90;99.90
3912;DHT22;1971;51.778;10.330;2023-05-19T07:28:06;13.60;99.90
3912;DHT22;1971;51.778;10.330;2023-05-19T07:30:36;13.60;99.90
3912;DHT22;1971;51.778;10.330;2023-05-19T07:33:06;13.90;99.90
3912;DHT22;1971;51.778;10.330;2023-05-19T07:35:37;14.30;99.90
3912;DHT22;1971;51.778;10.330;2023-05-19T07:38:10;14.30;99.90
3912;DHT22;1971;51.778;10.330;2023-05-19T07:40:40;14.10;99.90
3912;DHT22;1971;51.778;10.330;2023-05-19T07:43:10;13.90;99.90
3912;DHT22;1971;51.778;10.330;2023-05-19T07:45:41;13.80;99.00
3912;DHT22;1971;51.778;10.330;2023-05-19T07:48:12;14.10;99.90
3912;DHT22;1971;51.778;10.330;2023-05-19T07:50:45;14.50;99.90
3912;DHT22;1971;51.778;10.330;2023-05-19T07:53:17;14.70;96.10
3912;DHT22;1971;51.778;10.330;2023-05-19T07:55:48;14.70;95.70
3912;DHT22;1971;51.778;10.330;2023-05-19T07:58:19;14.90;99.90
3912;DHT22;1971;51.778;10.330;2023-05-19T08:00:49;15.10;99.90
3912;DHT22;1971;51.778;10.330;2023-05-19T08:03:19;15.00;97.60
3912;DHT22;1971;51.778;10.330;2023-05-19T08:05:50;14.90;97.70
3912;DHT22;1971;51.778;10.330;2023-05-19T08:08:23;14.80;93.00
3912;DHT22;1971;51.778;10.330;2023-05-19T08:10:53;15.10;68.70
3912;DHT22;1971;51.778;10.330;2023-05-19T08:13:23;14.90;61.90
3912;DHT22;1971;51.778;10.330;2023-05-19T08:15:53;14.90;75.50
3912;DHT22;1971;51.778;10.330;2023-05-19T08:18:26;15.00;67.70
3912;DHT22;1971;51.778;10.330;2023-05-19T08:20:56;14.90;57.60
3912;DHT22;1971;51.778;10.330;2023-05-19T08:23:28;15.10;81.40
3912;DHT22;1971;51.778;10.330;2023-05-19T08:25:59;15.00;59.70
3912;DHT22;1971;51.778;10.330;2023-05-19T08:28:29;14.70;47.20
3912;DHT22;1971;51.778;10.330;2023-05-19T08:30:59;14.30;49.30
3912;DHT22;1971;51.778;10.330;2023-05-19T08:33:29;14.30;28.30
3912;DHT22;1971;51.778;10.330;2023-05-19T08:35:59;14.30;46.90
3912;DHT22;1971;51.778;10.330;2023-05-19T08:38:32;14.30;67.30
3912;DHT22;1971;51.778;10.330;2023-05-19T08:41:02;14.30;43.30
3912;DHT22;1971;51.778;10.330;2023-05-19T08:43:33;14.30;46.10
3912;DHT22;1971;51.778;10.330;2023-05-19T08:46:03;14.40;44.50
3912;DHT22;1971;51.778;10.330;2023-05-19T08:48:39;14.60;73.70
3912;DHT22;1971;51.778;10.330;2023-05-19T08:51:16;14.70;87.00
3912;DHT22;1971;51.778;10.330;2023-05-19T08:53:53;15.10;99.90
3912;DHT22;1971;51.778;10.330;2023-05-19T08:56:29;15.10;89.50
3912;DHT22;1971;51.778;10.330;2023-05-19T08:59:12;14.60;43.90
3912;DHT22;1971;51.778;10.330;2023-05-19T09:01:44;14.50;50.60
3912;DHT22;1971;51.778;10.330;2023-05-19T09:04:16;14.40;46.20
3912;DHT22;1971;51.778;10.330;2023-05-19T09:06:46;14.40;71.60
3912;DHT22;1971;51.778;10.330;2023-05-19T09:09:19;14.60;77.20
3912;DHT22;1971;51.778;10.330;2023-05-19T09:11:50;14.80;92.40
3912;DHT22;1971;51.778;10.330;2023-05-19T09:14:20;14.80;92.10
3912;DHT22;1971;51.778;10.330;2023-05-19T09:16:51;14.80;96.10
3912;DHT22;1971;51.778;10.330;2023-05-19T09:19:21;14.50;91.00
3912;DHT22;1971;51.778;10.330;2023-05-19T09:21:57;14.40;83.50
3912;DHT22;1971;51.778;10.330;2023-05-19T09:24:33;14.30;95.70
3912;DHT22;1971;51.778;10.330;2023-05-19T09:27:04;14.40;98.40
3912;DHT22;1971;51.778;10.330;2023-05-19T09:29:34;14.10;93.30
3912;DHT22;1971;51.778;10.330;2023-05-19T09:32:15;13.90;99.90
3912;DHT22;1971;51.778;10.330;2023-05-19T09:34:53;13.70;99.60
3912;DHT22;1971;51.778;10.330;2023-05-19T09:37:26;13.70;99.90
3912;DHT22;1971;51.778;10.330;2023-05-19T09:40:01;14.30;99.90
3912;DHT22;1971;51.778;10.330;2023-05-19T09:42:36;14.70;99.90
3912;DHT22;1971;51.778;10.330;2023-05-19T09:45:08;14.80;99.90
3912;DHT22;1971;51.778;10.330;2023-05-19T09:47:40;14.50;99.90
3912;DHT22;1971;51.778;10.330;2023-05-19T09:50:11;14.50;99.90
3912;DHT22;1971;51.778;10.330;2023-05-19T09:52:43;14.50;99.90
3912;DHT22;1971;51.778;10.330;2023-05-19T09:55:16;14.50;99.90
3912;DHT22;1971;51.778;10.330;2023-05-19T09:57:49;14.60;99.90
3912;DHT22;1971;51.778;10.330;2023-05-19T10:00:19;14.90;97.60
3912;DHT22;1971;51.778;10.330;2023-05-19T10:02:50;15.00;96.70
3912;DHT22;1971;51.778;10.330;2023-05-19T10:05:22;15.00;97.40
3912;DHT22;1971;51.778;10.330;2023-05-19T10:07:54;14.80;91.00
3912;DHT22;1971;51.778;10.330;2023-05-19T10:10:27;14.60;87.50
3912;DHT22;1971;51.778;10.330;2023-05-19T10:12:58;14.40;96.20
3912;DHT22;1971;51.778;10.330;2023-05-19T10:15:31;14.20;59.20
3912;DHT22;1971;51.778;10.330;2023-05-19T10:18:11;14.30;66.40
3912;DHT22;1971;51.778;10.330;2023-05-19T10:20:43;14.50;77.90
3912;DHT22;1971;51.778;10.330;2023-05-19T10:23:14;14.60;81.30
3912;DHT22;1971;51.778;10.330;2023-05-19T10:25:48;15.00;99.90
3912;DHT22;1971;51.778;10.330;2023-05-19T10:28:19;15.20;94.80
3912;DHT22;1971;51.778;10.330;2023-05-19T10:30:53;15.40;97.90
3912;DHT22;1971;51.778;10.330;2023-05-19T10:33:37;15.50;92.50
3912;DHT22;1971;51.778;10.330;2023-05-19T10:36:27;15.30;96.10
3912;DHT22;1971;51.778;10.330;2023-05-19T10:39:04;15.10;86.00
3912;DHT22;1971;51.778;10.330;2023-05-19T10:41:44;15.00;96.40
3912;DHT22;1971;51.778;10.330;2023-05-19T10:44:22;15.30;99.90
3912;DHT22;1971;51.778;10.330;2023-05-19T10:46:55;15.20;82.40
3912;DHT22;1971;51.778;10.330;2023-05-19T10:49:25;14.90;81.80
3912;DHT22;1971;51.778;10.330;2023-05-19T10:51:55;15.00;97.90
3912;DHT22;1971;51.778;10.330;2023-05-19T10:54:41;15.00;91.40
3912;DHT22;1971;51.778;10.330;2023-05-19T10:57:16;15.30;99.90
3912;DHT22;1971;51.778;10.330;2023-05-19T10:59:46;15.50;99.90
3912;DHT22;1971;51.778;10.330;2023-05-19T11:02:35;15.30;94.30
3912;DHT22;1971;51.778;10.330;2023-05-19T11:05:10;15.00;99.90
3912;DHT22;1971;51.778;10.330;2023-05-19T11:07:41;15.00;99.90
3912;DHT22;1971;51.778;10.330;2023-05-19T11:10:22;15.40;99.90
3912;DHT22;1971;51.778;10.330;2023-05-19T11:12:56;15.40;99.90
3912;DHT22;1971;51.778;10.330;2023-05-19T11:15:32;15.70;99.90
3912;DHT22;1971;51.778;10.330;2023-05-19T11:18:03;16.30;99.90
3912;DHT22;1971;51.778;10.330;2023-05-19T11:20:38;16.60;99.90
3912;DHT22;1971;51.778;10.330;2023-05-19T11:23:09;16.30;99.90
3912;DHT22;1971;51.778;10.330;2023-05-19T11:25:45;16.60;99.90
3912;DHT22;1971;51.778;10.330;2023-05-19T11:28:19;16.20;99.90
3912;DHT22;1971;51.778;10.330;2023-05-19T11:30:54;16.10;89.40
3912;DHT22;1971;51.778;10.330;2023-05-19T11:33:25;15.90;91.00
3912;DHT22;1971;51.778;10.330;2023-05-19T11:35:56;15.80;97.10
3912;DHT22;1971;51.778;10.330;2023-05-19T11:38:27;15.80;95.80
3912;DHT22;1971;51.778;10.330;2023-05-19T11:40:57;15.90;99.90
3912;DHT22;1971;51.778;10.330;2023-05-19T11:43:30;15.40;85.70
3912;DHT22;1971;51.778;10.330;2023-05-19T11:46:00;15.30;99.90
3912;DHT22;1971;51.778;10.330;2023-05-19T11:48:30;15.10;87.10
3912;DHT22;1971;51.778;10.330;2023-05-19T11:51:00;15.20;98.40
3912;DHT22;1971;51.778;10.330;2023-05-19T11:53:31;15.60;98.10
3912;DHT22;1971;51.778;10.330;2023-05-19T11:56:02;15.70;99.90
3912;DHT22;1971;51.778;10.330;2023-05-19T11:58:36;15.50;97.90
3912;DHT22;1971;51.778;10.330;2023-05-19T12:01:06;15.30;75.00
3912;DHT22;1971;51.778;10.330;2023-05-19T12:03:37;15.30;77.70
3912;DHT22;1971;51.778;10.330;2023-05-19T12:06:07;15.30;97.20
3912;DHT22;1971;51.778;10.330;2023-05-19T12:08:40;15.40;93.50
3912;DHT22;1971;51.778;10.330;2023-05-19T12:11:10;15.70;66.90
3912;DHT22;1971;51.778;10.330;2023-05-19T12:13:43;15.50;67.20
3912;DHT22;1971;51.778;10.330;2023-05-19T12:16:13;15.50;71.40
3912;DHT22;1971;51.778;10.330;2023-05-19T12:18:43;15.60;76.80
3912;DHT22;1971;51.778;10.330;2023-05-19T12:21:14;16.20;99.90
3912;DHT22;1971;51.778;10.330;2023-05-19T12:23:47;16.40;99.90
3912;DHT22;1971;51.778;10.330;2023-05-19T12:26:17;16.10;93.30
3912;DHT22;1971;51.778;10.330;2023-05-19T12:28:51;15.70;87.10
3912;DHT22;1971;51.778;10.330;2023-05-19T12:31:21;15.60;89.20
3912;DHT22;1971;51.778;10.330;2023-05-19T12:33:52;15.90;98.90
3912;DHT22;1971;51.778;10.330;2023-05-19T12:36:23;15.90;77.50
3912;DHT22;1971;51.778;10.330;2023-05-19T12:38:54;15.70;65.50
3912;DHT22;1971;51.778;10.330;2023-05-19T12:41:25;15.50;70.80
3912;DHT22;1971;51.778;10.330;2023-05-19T12:43:58;15.50;47.50
3912;DHT22;1971;51.778;10.330;2023-05-19T12:46:31;15.30;47.20
3912;DHT22;1971;51.778;10.330;2023-05-19T12:49:02;15.10;48.90
3912;DHT22;1971;51.778;10.330;2023-05-19T12:51:32;15.20;59.40
3912;DHT22;1971;51.778;10.330;2023-05-19T12:54:02;15.20;66.10
3912;DHT22;1971;51.778;10.330;2023-05-19T12:56:32;15.30;85.30
3912;DHT22;1971;51.778;10.330;2023-05-19T12:59:05;15.10;73.80
3912;DHT22;1971;51.778;10.330;2023-05-19T13:01:35;15.00;81.60
3912;DHT22;1971;51.778;10.330;2023-05-19T13:04:05;14.70;86.10
3912;DHT22;1971;51.778;10.330;2023-05-19T13:06:35;14.70;92.40
3912;DHT22;1971;51.778;10.330;2023-05-19T13:09:06;14.70;91.90
3912;DHT22;1971;51.778;10.330;2023-05-19T13:11:36;14.60;92.70
3912;DHT22;1971;51.778;10.330;2023-05-19T13:14:09;14.60;93.30
3912;DHT22;1971;51.778;10.330;2023-05-19T13:16:42;14.50;88.70
3912;DHT22;1971;51.778;10.330;2023-05-19T13:19:14;14.50;92.90
3912;DHT22;1971;51.778;10.330;2023-05-19T13:21:52;14.60;92.50
3912;DHT22;1971;51.778;10.330;2023-05-19T13:24:22;14.60;89.30
3912;DHT22;1971;51.778;10.330;2023-05-19T13:26:52;14.60;69.20
3912;DHT22;1971;51.778;10.330;2023-05-19T13:29:25;14.60;79.80
3912;DHT22;1971;51.778;10.330;2023-05-19T13:31:56;14.60;61.00
3912;DHT22;1971;51.778;10.330;2023-05-19T13:34:27;14.70;67.60
3912;DHT22;1971;51.778;10.330;2023-05-19T13:36:57;14.80;67.30
3912;DHT22;1971;51.778;10.330;2023-05-19T13:39:28;15.00;67.60
3912;DHT22;1971;51.778;10.330;2023-05-19T13:42:03;15.20;70.50
3912;DHT22;1971;51.778;10.330;2023-05-19T13:44:52;15.00;54.80
3912;DHT22;1971;51.778;10.330;2023-05-19T13:47:33;14.90;66.10
3912;DHT22;1971;51.778;10.330;2023-05-19T13:50:16;15.00;86.00
3912;DHT22;1971;51.778;10.330;2023-05-19T13:52:57;15.10;91.40
3912;DHT22;1971;51.778;10.330;2023-05-19T13:55:35;15.10;90.60
3912;DHT22;1971;51.778;10.330;2023-05-19T13:58:16;15.00;95.90
3912;DHT22;1971;51.778;10.330;2023-05-19T14:00:58;15.00;91.30
3912;DHT22;1971;51.778;10.330;2023-05-19T14:03:40;15.00;86.90
3912;DHT22;1971;51.778;10.330;2023-05-19T14:06:24;15.00;80.80
3912;DHT22;1971;51.778;10.330;2023-05-19T14:09:06;15.10;65.70
3912;DHT22;1971;51.778;10.330;2023-05-19T14:11:49;14.90;77.20
3912;DHT22;1971;51.778;10.330;2023-05-19T14:14:29;14.80;71.00
3912;DHT22;1971;51.778;10.330;2023-05-19T14:17:11;14.90;67.40
3912;DHT22;1971;51.778;10.330;2023-05-19T14:19:51;15.10;62.70
3912;DHT22;1971;51.778;10.330;2023-05-19T14:22:28;15.40;50.40
3912;DHT22;1971;51.778;10.330;2023-05-19T14:25:06;15.50;62.40
3912;DHT22;1971;51.778;10.330;2023-05-19T14:27:51;15.80;58.50
3912;DHT22;1971;51.778;10.330;2023-05-19T14:30:39;15.70;61.30
3912;DHT22;1971;51.778;10.330;2023-05-19T14:33:22;16.00;70.10
3912;DHT22;1971;51.778;10.330;2023-05-19T14:36:03;16.30;94.10
3912;DHT22;1971;51.778;10.330;2023-05-19T14:38:36;16.00;55.40
3912;DHT22;1971;51.778;10.330;2023-05-19T14:41:21;15.70;61.70
3912;DHT22;1971;51.778;10.330;2023-05-19T14:44:02;15.60;74.90
3912;DHT22;1971;51.778;10.330;2023-05-19T14:46:45;15.80;71.00
3912;DHT22;1971;51.778;10.330;2023-05-19T14:49:35;15.90;70.00
3912;DHT22;1971;51.778;10.330;2023-05-19T14:52:11;15.80;43.80
3912;DHT22;1971;51.778;10.330;2023-05-19T14:54:51;15.90;59.20
3912;DHT22;1971;51.778;10.330;2023-05-19T14:57:27;15.80;56.70
3912;DHT22;1971;51.778;10.330;2023-05-19T15:00:03;16.00;47.60
3912;DHT22;1971;51.778;10.330;2023-05-19T15:02:58;15.20;47.50
3912;DHT22;1971;51.778;10.330;2023-05-19T15:05:45;15.10;43.10
3912;DHT22;1971;51.778;10.330;2023-05-19T15:08:32;15.00;15.40
3912;DHT22;1971;51.778;10.330;2023-05-19T15:11:19;15.30;26.10
3912;DHT22;1971;51.778;10.330;2023-05-19T15:14:10;15.60;23.70
3912;DHT22;1971;51.778;10.330;2023-05-19T15:16:45;15.80;31.00
3912;DHT22;1971;51.778;10.330;2023-05-19T15:19:21;15.80;26.90
3912;DHT22;1971;51.778;10.330;2023-05-19T15:22:07;15.70;36.70
3912;DHT22;1971;51.778;10.330;2023-05-19T15:24:54;15.90;43.90
3912;DHT22;1971;51.778;10.330;2023-05-19T15:27:31;16.10;54.30
3912;DHT22;1971;51.778;10.330;2023-05-19T15:30:10;15.80;36.50
3912;DHT22;1971;51.778;10.330;2023-05-19T15:32:47;15.40;27.00
3912;DHT22;1971;51.778;10.330;2023-05-19T15:35:36;15.10;24.30
3912;DHT22;1971;51.778;10.330;2023-05-19T15:38:13;15.00;26.30
3912;DHT22;1971;51.778;10.330;2023-05-19T15:40:53;14.80;21.30
3912;DHT22;1971;51.778;10.330;2023-05-19T15:43:32;14.60;17.30
3912;DHT22;1971;51.778;10.330;2023-05-19T15:46:11;14.70;15.70
3912;DHT22;1971;51.778;10.330;2023-05-19T15:48:49;14.70;21.30
3912;DHT22;1971;51.778;10.330;2023-05-19T15:51:31;14.80;18.80
3912;DHT22;1971;51.778;10.330;2023-05-19T15:54:14;14.80;29.50
3912;DHT22;1971;51.778;10.330;2023-05-19T15:56:53;14.90;27.60
3912;DHT22;1971;51.778;10.330;2023-05-19T15:59:31;14.60;13.70
3912;DHT22;1971;51.778;10.330;2023-05-19T16:02:06;14.60;12.00
3912;DHT22;1971;51.778;10.330;2023-05-19T16:04:45;14.50;15.70
3912;DHT22;1971;51.778;10.330;2023-05-19T16:07:29;14.70;20.20
3912;DHT22;1971;51.778;10.330;2023-05-19T16:10:25;14.90;21.90
3912;DHT22;1971;51.778;10.330;2023-05-19T16:12:59;15.10;30.30
3912;DHT22;1971;51.778;10.330;2023-05-19T16:15:45;15.30;29.80
3912;DHT22;1971;51.778;10.330;2023-05-19T16:18:38;15.20;24.40
3912;DHT22;1971;51.778;10.330;2023-05-19T16:21:20;14.80;12.10
3912;DHT22;1971;51.778;10.330;2023-05-19T16:23:56;14.90;13.70
3912;DHT22;1971;51.778;10.330;2023-05-19T16:26:37;14.90;16.60
3912;DHT22;1971;51.778;10.330;2023-05-19T16:29:10;14.90;22.70
3912;DHT22;1971;51.778;10.330;2023-05-19T16:31:50;15.00;20.80
3912;DHT22;1971;51.778;10.330;2023-05-19T16:34:28;15.00;25.00
3912;DHT22;1971;51.778;10.330;2023-05-19T16:37:12;15.00;22.30
3912;DHT22;1971;51.778;10.330;2023-05-19T16:39:46;14.90;17.10